Flight Track Log - Related Links

Times and Time Zones

All times are in EDT time to prevent confusion due to time zone crossing. See the SWA3924 flight status page for this flight to view local times or setup timezone preferences in your user account.

Time Position Orientation Groundspeed Altitude Reporting Facility
EDT Latitude Longitude Course Direction KTS MPH feet Rate Location/Type
Fri 01:20:51 PM 28.4500 -81.3167 360° North 166 191 800  Level Orlando TRACON
Fri 01:21:09 PM 28.4667 -81.3167 360° North 161 185 1,600 2,203 Climbing Orlando TRACON
Fri 01:22:10 PM 28.5167 -81.3167 360° North 220 253 3,700 2,479 Climbing Orlando TRACON
Fri 01:23:10 PM 28.5833 -81.3333 348° North 254 292 6,600 3,053 Climbing Orlando TRACON
Fri 01:24:04 PM 28.6000 -81.4000 286° West 284 327 9,500 3,049 Climbing Orlando TRACON
Fri 01:26:15 PM 28.5650 -81.6139 259° West 357 411 16,000 2,073 Climbing Jacksonville Center
Fri 01:27:15 PM 28.5517 -81.7275 262° West 357 411 16,100 850 Climbing Jacksonville Center
Fri 01:28:15 PM 28.5400 -81.8458 264° West 364 419 17,700 1,450 Climbing Jacksonville Center
Fri 01:29:15 PM 28.5494 -81.9639 275° West 374 430 19,000 1,850 Climbing Jacksonville Center
Fri 01:30:15 PM 28.5606 -82.0961 275° West 384 442 21,400 2,550 Climbing Jacksonville Center
Fri 01:31:15 PM 28.5678 -82.2236 274° West 390 449 24,100 2,450 Climbing Jacksonville Center
Fri 01:32:15 PM 28.5975 -82.3511 285° West 403 464 26,300 2,050 Climbing Jacksonville Center
Fri 01:33:15 PM 28.6522 -82.4644 299° West 417 480 28,200 1,800 Climbing Jacksonville Center
Fri 01:34:15 PM 28.7503 -82.5208 333° Northwest 393 452 29,900 2,033 Climbing Jacksonville Center
Fri 01:35:16 PM 28.8569 -82.5867 332° Northwest 413 475 32,300 2,400 Climbing Jacksonville Center
Fri 01:36:15 PM 28.9572 -82.6481 332° Northwest 419 482 34,700 2,067 Climbing Jacksonville Center
Fri 01:37:15 PM 29.0556 -82.7097 331° Northwest 413 475 36,400 1,400 Climbing Jacksonville Center
Fri 01:38:15 PM 29.1536 -82.7714 331° Northwest 402 463 37,500 800 Climbing Jacksonville Center
Fri 01:39:15 PM 29.2519 -82.8331 331° Northwest 402 463 38,000 250 Climbing Jacksonville Center
Fri 01:40:15 PM 29.3522 -82.8950 332° Northwest 397 457 38,000  Level Jacksonville Center
Fri 01:41:15 PM 29.4481 -82.9569 331° Northwest 397 457 38,000  Level Jacksonville Center
Fri 01:42:15 PM 29.5586 -83.0239 332° Northwest 403 464 38,000  Level Jacksonville Center
Fri 01:43:15 PM 29.6672 -83.0600 344° North 398 458 38,000  Level Jacksonville Center
Fri 01:44:15 PM 29.7758 -83.0961 344° North 398 458 38,000  Level Jacksonville Center
Fri 01:45:15 PM 29.8822 -83.1322 344° North 398 458 38,000  Level Jacksonville Center
Fri 01:46:15 PM 29.9886 -83.1683 344° North 398 458 38,000  Level Jacksonville Center
Fri 01:47:15 PM 30.0992 -83.2022 345° North 398 458 38,000  Level Jacksonville Center
Fri 01:48:15 PM 30.2075 -83.2386 344° North 398 458 38,000  Level Jacksonville Center
Fri 01:49:15 PM 30.3161 -83.2728 345° North 398 458 38,000  Level Jacksonville Center
Fri 01:50:15 PM 30.4225 -83.3094 343° North 398 458 38,000  Level Jacksonville Center
Fri 01:51:15 PM 30.5308 -83.3458 344° North 398 458 38,000  Level Jacksonville Center
Fri 01:52:15 PM 30.6414 -83.3828 344° North 398 458 38,000  Level Jacksonville Center
Fri 01:53:15 PM 30.7456 -83.4194 343° North 398 458 38,000  Level Jacksonville Center
Fri 01:54:15 PM 30.8394 -83.4514 344° North 403 464 38,000  Level Jacksonville Center
Fri 01:55:15 PM 30.9458 -83.4908 342° North 403 464 38,000  Level Jacksonville Center
Fri 01:56:15 PM 31.0522 -83.5256 344° North 403 464 38,000  Level Jacksonville Center
Fri 01:57:15 PM 31.1583 -83.5625 343° North 398 458 38,000 350 Level Jacksonville Center
Fri 01:58:15 PM 31.2667 -83.6000 344° North 403 464 38,700 850 Climbing Jacksonville Center
Fri 01:59:15 PM 31.3731 -83.6372 343° North 403 464 39,700 429 Climbing Jacksonville Center
Fri 02:01:17 PM 31.5917 -83.7147 343° North 405 466 40,000 99 Climbing Atlanta Center
Fri 02:02:17 PM 31.7086 -83.7533 344° North 400 460 40,000  Level Atlanta Center
Fri 02:03:17 PM 31.8153 -83.7919 343° North 400 460 40,000  Level Atlanta Center
Fri 02:04:17 PM 31.9258 -83.8308 343° North 407 468 40,000  Level Atlanta Center
Fri 02:05:17 PM 32.0303 -83.8672 344° North 397 457 40,000  Level Atlanta Center
Fri 02:06:17 PM 32.1328 -83.9014 344° North 391 450 40,000  Level Atlanta Center
Fri 02:07:17 PM 32.2369 -83.9381 343° North 391 450 40,000  Level Atlanta Center
Fri 02:08:17 PM 32.3414 -83.9750 343° North 391 450 40,000  Level Atlanta Center
Fri 02:09:17 PM 32.4458 -84.0117 343° North 385 443 40,000  Level Atlanta Center
Fri 02:10:17 PM 32.5522 -84.0511 343° North 385 443 40,000  Level Atlanta Center
Fri 02:11:17 PM 32.6567 -84.0881 343° North 385 443 40,000  Level Atlanta Center
Fri 02:12:17 PM 32.7631 -84.1253 344° North 385 443 40,000  Level Atlanta Center
Fri 02:13:17 PM 32.8653 -84.1625 343° North 385 443 40,000  Level Atlanta Center
Fri 02:14:17 PM 32.9697 -84.1997 343° North 385 443 40,000  Level Atlanta Center
Fri 02:15:17 PM 33.0614 -84.2347 342° North 385 443 40,000  Level Atlanta Center
Fri 02:16:17 PM 33.1678 -84.2719 344° North 385 443 40,000  Level Atlanta Center
Fri 02:17:17 PM 33.2722 -84.3097 343° North 385 443 40,000  Level Atlanta Center
Fri 02:18:17 PM 33.3764 -84.3447 344° North 385 443 40,000  Level Atlanta Center
Fri 02:19:17 PM 33.4806 -84.3850 342° North 385 443 40,000  Level Atlanta Center
Fri 02:20:18 PM 33.5828 -84.4203 344° North 384 442 40,000 -50 Level Atlanta Center
Fri 02:21:17 PM 33.6933 -84.4658 341° North 384 442 39,900 -555 Descending Atlanta Center
Fri 02:22:17 PM 33.7892 -84.5086 340° North 377 434 38,900 -1,000 Descending Atlanta Center
Fri 02:23:17 PM 33.8975 -84.5544 341° North 377 434 37,900 -1,000 Descending Atlanta Center
Fri 02:24:17 PM 33.9997 -84.6000 340° North 389 448 36,900 -950 Descending Atlanta Center
Fri 02:25:17 PM 34.1017 -84.6458 340° North 389 448 36,000 -900 Descending Atlanta Center
Fri 02:26:17 PM 34.1975 -84.6892 339° North 395 455 35,100 -950 Descending Atlanta Center
Fri 02:27:17 PM 34.2911 -84.7478 333° Northwest 384 442 34,100 -550 Descending Atlanta Center
Fri 02:28:17 PM 34.3825 -84.8139 329° Northwest 379 436 34,000 -50 Descending Atlanta Center
Fri 02:29:17 PM 34.4717 -84.8803 328° Northwest 379 436 34,000  Level Atlanta Center
Fri 02:30:17 PM 34.5714 -84.9519 329° Northwest 379 436 34,000 -400 Level Atlanta Center
Fri 02:31:17 PM 34.6586 -85.0211 327° Northwest 379 436 33,200 -900 Descending Atlanta Center
Fri 02:32:17 PM 34.7456 -85.0878 328° Northwest 374 430 32,200 -1,050 Descending Atlanta Center
Fri 02:33:17 PM 34.8328 -85.1547 328° Northwest 374 430 31,100 -950 Descending Atlanta Center
Fri 02:34:17 PM 34.9011 -85.2089 327° Northwest 368 423 30,300 -1,012 Descending Atlanta Center
Fri 02:36:09 PM 35.0792 -85.3458 328° Northwest 360 414 28,200 -1,291 Descending Memphis Center
Fri 02:37:09 PM 35.1594 -85.4197 323° Northwest 360 414 26,600 -1,700 Descending Memphis Center
Fri 02:38:09 PM 35.2253 -85.5022 314° West 347 399 24,800 -1,750 Descending Memphis Center
Fri 02:39:09 PM 35.2867 -85.5800 314° West 335 386 23,100 -1,700 Descending Memphis Center
Fri 02:40:09 PM 35.3500 -85.6578 315° West 330 380 21,400 -1,700 Descending Memphis Center
Fri 02:41:09 PM 35.4092 -85.7336 314° West 325 374 19,700 -1,650 Descending Memphis Center
Fri 02:42:09 PM 35.4661 -85.8017 316° Northwest 313 360 18,100 -1,550 Descending Memphis Center
Fri 02:43:09 PM 35.5231 -85.8778 313° West 305 351 16,600 -1,600 Descending Memphis Center
Fri 02:44:09 PM 35.5797 -85.9486 315° West 300 345 14,900 -1,650 Descending Memphis Center
Fri 02:45:09 PM 35.6367 -86.0222 314° West 300 345 13,300 -1,600 Descending Memphis Center
Fri 02:46:09 PM 35.6892 -86.0986 310° West 300 345 11,700 -1,350 Descending Memphis Center
Fri 02:47:09 PM 35.7358 -86.1781 306° West 295 339 10,600 -1,100 Descending Memphis Center
Fri 02:48:09 PM 35.7800 -86.2578 304° West 286 329 9,500 -1,250 Descending Memphis Center
Fri 02:49:09 PM 35.8222 -86.3375 303° West 281 323 8,100 -1,400 Descending Memphis Center
Fri 02:50:09 PM 35.8644 -86.4125 305° West 269 310 6,700 -1,300 Descending Memphis Center
Fri 02:51:09 PM 35.9044 -86.4900 303° West 274 315 5,500 -850 Descending Memphis Center
Fri 02:52:09 PM 35.9417 -86.5547 305° West 269 310 5,000 -750 Descending Memphis Center
Fri 02:53:09 PM 35.9772 -86.6225 303° West 252 290 4,000 -1,100 Descending Memphis Center
Fri 02:54:09 PM 36.0125 -86.6875 304° West 242 278 2,800 -1,100 Descending Memphis Center
Fri 02:55:09 PM 36.0522 -86.6908 356° North 167 192 1,800 -850 Descending Memphis Center
Fri 02:56:09 PM 36.0894 -86.6789 15° North 139 160 1,100 -700 Descending Memphis Center
Fri 02:58:00 PM 36.1167 -86.6667 345° North  Level FlightAware Approximate
Fri 03:05:00 PM 36.1245 -86.6782 345° North  Level Estimated
Fri 03:06:00 PM 36.1245 -86.6782 345° North  Level Estimated
Fri 03:07:00 PM 36.1245 -86.6782 345° North  Level Estimated
Fri 03:08:00 PM 36.1245 -86.6782 345° North  Level Estimated
Fri 03:09:00 PM 36.1245 -86.6782 345° North  Level Estimated
Fri 03:10:00 PM 36.1245 -86.6782 345° North  Level Estimated

Login

Don't have an account? Register now (free) for customized features, flight alerts, and more!